Terminal Aerodrome Forecast
Issued by NWS Tallahassee, FL

Home | Current Version | Previous Version | Text Only | Print | Product List | Glossary On
Versions: 1 2 3 4 5 6 7 8 9 10 11 12 13 14 15 16 17 18
000
FTUS42 KTAE 230500
TAFTLH
TAF
KTLH 230521Z 2306/2406 00000KT P6SM FEW007
     FM230800 00000KT 1SM BR BKN005
      TEMPO 2310/2312 1/2SM FG BKN002
     FM231400 33005KT P6SM SCT040=

USA.gov is the U.S. government's official web portal to all federal, state and local government web resources and services.